Time;durP1;ratioP1;P1;durP2;ratioP2;P2;SDS_P1;SDS_P2;PMS_P1;PMS_P2;Temp;Humidity;BMP_temperature;BMP_pressure;BME280_temperature;BME280_humidity;BME280_pressure;Samples;Min_cycle;Max_cycle;Signal;HPM_P1;HPM_P2
2023/12/14 02:05:34;;;;;;;16.48;5.35;;;;;;;3.55;100.00;100527.56;5051377;28;20036;-76
2023/12/14 02:11:59;;;;;;;15.35;5.32;;;;;;;3.66;100.00;100542.56;5067211;28;20047;-76
2023/12/14 02:24:29;;;;;;;12.82;5.32;;;;;;;3.63;100.00;100556.84;5064921;28;20063;-76
2023/12/14 02:27:14;;;;;;;18.02;6.35;;;;;;;3.59;100.00;100550.97;5062160;28;20108;-76
2023/12/14 02:29:40;;;;;;;12.27;5.20;;;;;;;3.56;100.00;100542.47;5067254;28;20471;-77
2023/12/14 02:35:27;;;;;;;13.23;5.07;;;;;;;3.59;100.00;100553.59;5067251;28;20047;-77
2023/12/14 02:38:31;;;;;;;15.13;7.03;;;;;;;3.56;100.00;100551.22;5068147;28;20031;-77
2023/12/14 02:41:53;;;;;;;17.63;5.78;;;;;;;3.47;100.00;100548.47;5068049;28;20044;-76
2023/12/14 02:51:39;;;;;;;8.85;4.75;;;;;;;3.57;100.00;100549.41;5060972;28;20044;-76
2023/12/14 02:54:23;;;;;;;14.90;6.15;;;;;;;3.58;100.00;100556.34;5051609;28;20036;-76
2023/12/14 03:00:29;;;;;;;12.38;4.28;;;;;;;3.55;100.00;100561.88;5060568;28;20509;-78
2023/12/14 03:02:54;;;;;;;14.00;4.20;;;;;;;3.48;100.00;100560.69;5038837;28;20033;-77
2023/12/14 03:05:58;;;;;;;11.15;4.78;;;;;;;3.47;100.00;100561.66;5049582;28;20032;-76
2023/12/14 03:23:38;;;;;;;11.40;5.57;;;;;;;3.49;100.00;100605.44;5068216;28;20063;-78
2023/12/14 03:26:22;;;;;;;17.15;6.13;;;;;;;3.47;100.00;100595.97;5067464;28;20637;-77
2023/12/14 03:28:47;;;;;;;16.85;5.45;;;;;;;3.42;100.00;100598.13;5065787;28;20047;-76
2023/12/14 03:41:00;;;;;;;14.35;5.93;;;;;;;3.45;100.00;100625.13;5060096;28;20094;-77
2023/12/14 03:44:23;;;;;;;17.23;6.22;;;;;;;3.44;100.00;100620.81;5059845;28;20047;-77
2023/12/14 03:47:27;;;;;;;15.65;5.18;;;;;;;3.52;100.00;100636.88;5052383;28;20682;-77
2023/12/14 03:56:39;;;;;;;14.40;6.88;;;;;;;3.40;100.00;100637.00;5065618;28;20036;-78
2023/12/14 04:06:26;;;;;;;14.45;6.03;;;;;;;3.42;100.00;100669.38;5062121;28;20052;-78
2023/12/14 04:18:45;;;;;;;11.30;5.55;;;;;;;3.31;100.00;100676.31;5023772;28;20052;-78
2023/12/14 04:21:47;;;;;;;13.65;5.93;;;;;;;3.37;100.00;100681.16;5020272;28;20121;-77
2023/12/14 04:31:15;;;;;;;14.18;6.03;;;;;;;3.35;100.00;100677.78;5027235;28;20050;-78
2023/12/14 04:37:11;;;;;;;14.38;6.22;;;;;;;3.33;100.00;100695.53;5022811;28;20041;-78
2023/12/14 04:39:55;;;;;;;16.08;5.90;;;;;;;3.38;100.00;100705.72;5027262;28;20084;-79
2023/12/14 04:55:51;;;;;;;14.82;6.22;;;;;;;3.25;100.00;100683.88;5068433;28;20067;-78
2023/12/14 05:01:56;;;;;;;12.95;6.53;;;;;;;3.25;100.00;100700.53;5069684;28;20054;-78
2023/12/14 05:05:18;;;;;;;14.65;7.65;;;;;;;3.07;100.00;100684.31;5068369;28;20051;-77
2023/12/14 05:18:26;;;;;;;14.98;5.28;;;;;;;3.18;100.00;100699.31;5060937;28;20094;-78
2023/12/14 05:21:11;;;;;;;11.23;5.55;;;;;;;3.25;100.00;100708.44;5058484;28;20048;-77
2023/12/14 05:24:16;;;;;;;10.43;5.03;;;;;;;3.26;100.00;100699.59;5054815;28;20461;-77
2023/12/14 05:30:25;;;;;;;15.43;6.47;;;;;;;3.29;100.00;100712.53;5063034;28;20148;-78
2023/12/14 05:50:01;;;;;;;15.10;5.80;;;;;;;3.31;100.00;100689.53;5060574;28;20027;-78
2023/12/14 05:53:04;;;;;;;11.45;5.70;;;;;;;3.30;100.00;100698.41;5068113;28;20129;-78
2023/12/14 05:56:07;;;;;;;13.10;5.70;;;;;;;3.29;100.00;100694.06;5069239;28;20082;-78
2023/12/14 06:01:58;;;;;;;11.07;5.72;;;;;;;3.34;100.00;100686.63;5059998;28;20039;-79
2023/12/14 06:04:42;;;;;;;14.05;5.22;;;;;;;3.35;100.00;100698.91;5068502;28;20024;-78
2023/12/14 06:20:19;;;;;;;29.30;6.88;;;;;;;3.40;100.00;100713.53;5062846;28;20046;-78
2023/12/14 06:45:23;;;;;;;13.15;6.47;;;;;;;3.18;100.00;100699.31;5063763;28;20050;-78
2023/12/14 06:48:08;;;;;;;9.38;5.00;;;;;;;3.06;100.00;100693.16;5055476;28;20786;-78
2023/12/14 06:50:54;;;;;;;13.55;6.20;;;;;;;3.27;100.00;100742.66;5054513;28;20396;-79
2023/12/14 07:04:08;;;;;;;14.15;5.80;;;;;;;3.03;100.00;100750.59;5059799;28;20589;-78
2023/12/14 07:09:54;;;;;;;16.33;6.00;;;;;;;3.07;100.00;100760.81;5059914;28;20722;-78
2023/12/14 07:12:57;;;;;;;17.00;7.13;;;;;;;2.99;100.00;100767.59;5057090;28;20055;-78
2023/12/14 07:15:41;;;;;;;12.02;5.85;;;;;;;3.05;100.00;100791.75;5049281;28;20040;-78
2023/12/14 07:18:28;;;;;;;12.43;6.60;;;;;;;3.11;100.00;100807.13;5057445;28;20091;-78
2023/12/14 07:21:12;;;;;;;13.23;6.10;;;;;;;3.16;100.00;100812.03;5061839;28;20523;-79
2023/12/14 07:27:19;;;;;;;13.55;5.55;;;;;;;3.15;100.00;100823.56;5052820;28;20132;-79
2023/12/14 07:30:41;;;;;;;10.85;5.70;;;;;;;3.02;100.00;100806.94;5065456;28;20518;-78
2023/12/14 07:33:59;;;;;;;18.45;5.63;;;;;;;3.22;100.00;100835.34;5055856;28;20467;-78
2023/12/14 07:36:48;;;;;;;11.40;5.60;;;;;;;3.15;100.00;100842.03;5055185;28;20063;-78
2023/12/14 07:40:11;;;;;;;11.98;6.10;;;;;;;3.07;100.00;100836.47;5058740;28;20677;-78
2023/12/14 07:45:59;;;;;;;13.15;4.97;;;;;;;3.15;100.00;100860.50;5053893;28;20032;-77
2023/12/14 08:02:00;;;;;;;12.80;5.13;;;;;;;3.05;100.00;100923.63;5020001;28;20129;-79
2023/12/14 08:04:25;;;;;;;10.95;5.60;;;;;;;3.02;100.00;100929.13;4995361;28;20517;-78
2023/12/14 08:06:51;;;;;;;14.73;5.57;;;;;;;2.99;100.00;100929.34;5025243;28;20034;-78
2023/12/14 08:09:16;;;;;;;11.25;5.57;;;;;;;2.94;100.00;100948.13;5055283;28;20129;-77
2023/12/14 08:11:42;;;;;;;12.07;4.90;;;;;;;3.09;100.00;100967.31;5063773;28;20044;-78
2023/12/14 08:14:07;;;;;;;9.47;5.20;;;;;;;3.02;100.00;100965.19;5035394;28;20295;-78
2023/12/14 08:16:32;;;;;;;11.07;5.10;;;;;;;3.05;100.00;100976.38;5064544;28;20037;-78
2023/12/14 08:18:58;;;;;;;13.52;6.68;;;;;;;3.08;100.00;100980.59;5057241;28;20033;-78
2023/12/14 08:21:23;;;;;;;13.90;4.93;;;;;;;3.07;100.00;100984.22;5068379;28;20542;-78
2023/12/14 08:24:08;;;;;;;7.88;4.55;;;;;;;3.07;100.00;100989.47;5066607;28;20029;-78
2023/12/14 08:27:29;;;;;;;11.27;4.75;;;;;;;3.08;100.00;101001.72;5068507;28;20714;-77
2023/12/14 08:39:20;;;;;;;8.13;3.92;;;;;;;3.12;100.00;101011.09;4980051;28;20081;-78
2023/12/14 08:42:04;;;;;;;8.05;4.00;;;;;;;3.17;100.00;101006.34;4975020;28;20137;-78
2023/12/14 08:54:34;;;;;;;8.85;4.90;;;;;;;3.25;100.00;100967.03;5005831;28;20076;-78
2023/12/14 08:57:37;;;;;;;8.65;3.92;;;;;;;3.12;100.00;100950.41;4993899;28;20143;-79
2023/12/14 09:00:04;;;;;;;9.30;4.18;;;;;;;3.24;100.00;100965.38;5009533;28;20128;-77
2023/12/14 09:02:30;;;;;;;8.15;4.00;;;;;;;3.31;100.00;100968.41;4987730;28;20082;-78
2023/12/14 09:14:42;;;;;;;9.90;4.93;;;;;;;3.47;100.00;100947.03;5054438;28;20514;-78
2023/12/14 09:17:32;;;;;;;11.15;5.30;;;;;;;3.46;100.00;100946.16;5063032;28;20093;-78
2023/12/14 09:30:28;;;;;;;13.25;6.68;;;;;;;3.53;100.00;100965.06;4982188;28;20058;-78
2023/12/14 09:33:12;;;;;;;14.60;6.80;;;;;;;3.51;100.00;100962.53;4965745;28;20041;-78
2023/12/14 09:39:33;;;;;;;13.88;6.28;;;;;;;3.61;100.00;100989.13;4981098;28;20050;-78
2023/12/14 09:45:08;;;;;;;10.63;6.25;;;;;;;3.65;100.00;100993.19;5030067;23;20087;-77
2023/12/14 09:48:15;;;;;;;11.13;6.13;;;;;;;3.65;100.00;100990.56;5087500;28;20040;-76
2023/12/14 09:51:18;;;;;;;8.25;4.38;;;;;;;3.52;100.00;100985.34;5070107;28;20070;-79
2023/12/14 09:57:25;;;;;;;9.23;5.50;;;;;;;3.56;100.00;101002.66;5062152;28;20056;-79
2023/12/14 10:03:50;;;;;;;18.88;5.28;;;;;;;3.75;100.00;101022.44;5064947;28;20329;-76
2023/12/14 10:06:53;;;;;;;10.15;4.90;;;;;;;3.81;100.00;101041.31;5061273;28;20433;-80
2023/12/14 10:09:37;;;;;;;7.63;4.57;;;;;;;3.67;100.00;101015.06;5054771;28;20024;-77
2023/12/14 10:16:21;;;;;;;9.73;4.68;;;;;;;3.73;100.00;101035.75;5064281;28;20075;-79
2023/12/14 10:22:46;;;;;;;10.13;4.20;;;;;;;3.67;100.00;101003.66;5063938;28;20097;-78
2023/12/14 10:41:24;;;;;;;14.18;4.25;;;;;;;3.50;100.00;101028.66;5064820;28;20043;-79
2023/12/14 10:50:56;;;;;;;7.72;2.90;;;;;;;3.33;100.00;100996.38;5062984;28;20497;-75
2023/12/14 10:54:17;;;;;;;8.95;3.97;;;;;;;3.31;100.00;100998.28;5063593;28;20155;-79
2023/12/14 11:00:43;;;;;;;6.00;3.70;;;;;;;3.29;100.00;100988.78;5059723;28;20403;-76
2023/12/14 11:03:50;;;;;;;5.90;2.58;;;;;;;3.28;100.00;100977.41;5043358;28;20182;-77
2023/12/14 11:09:59;;;;;;;6.40;2.83;;;;;;;3.25;100.00;100974.13;5057088;28;20039;-78
2023/12/14 11:15:53;;;;;;;5.50;2.72;;;;;;;3.30;100.00;100950.88;5056661;28;20029;-77
2023/12/14 11:28:54;;;;;;;3.83;2.20;;;;;;;3.31;100.00;100899.81;5067425;28;20098;-78
2023/12/14 11:31:57;;;;;;;7.15;2.35;;;;;;;3.17;100.00;100867.34;5057081;28;20036;-78
2023/12/14 11:35:00;;;;;;;2.80;1.75;;;;;;;3.21;100.00;100860.06;5070826;28;20111;-75
2023/12/14 11:44:09;;;;;;;3.35;1.98;;;;;;;3.34;100.00;100812.47;5061462;28;20099;-76
2023/12/14 11:53:03;;;;;;;4.40;2.40;;;;;;;3.57;100.00;100781.72;5065794;28;20411;-79
2023/12/14 12:05:18;;;;;;;3.25;2.30;;;;;;;3.68;100.00;100799.41;5065326;28;20511;-79
2023/12/14 12:15:05;;;;;;;4.40;2.55;;;;;;;3.49;100.00;100689.06;5019462;28;20041;-78
2023/12/14 12:17:37;;;;;;;4.10;2.45;;;;;;;3.63;100.00;100707.34;5011216;28;20053;-77
2023/12/14 12:20:39;;;;;;;5.50;2.60;;;;;;;3.66;100.00;100685.97;5013829;28;20048;-77
2023/12/14 12:23:24;;;;;;;5.60;2.47;;;;;;;3.68;100.00;100689.34;5022718;28;20109;-79
2023/12/14 12:26:10;;;;;;;5.68;2.80;;;;;;;3.66;100.00;100695.69;5027546;28;20052;-78
2023/12/14 12:29:14;;;;;;;6.05;2.25;;;;;;;3.69;100.00;100708.66;5013180;28;20045;-78
2023/12/14 12:35:20;;;;;;;3.67;2.42;;;;;;;3.79;100.00;100750.09;5024656;28;20042;-78
2023/12/14 12:47:53;;;;;;;7.35;3.00;;;;;;;3.74;100.00;100688.00;5038223;28;20044;-76
2023/12/14 12:54:12;;;;;;;6.57;3.15;;;;;;;3.70;100.00;100668.94;5069922;28;20024;-76
2023/12/14 13:00:55;;;;;;;4.40;2.60;;;;;;;3.61;100.00;100725.09;5069535;28;20450;-78
2023/12/14 13:04:01;;;;;;;4.97;3.10;;;;;;;3.47;100.00;100720.03;5070069;28;20167;-76
2023/12/14 13:07:05;;;;;;;4.50;2.63;;;;;;;3.43;100.00;100743.16;5063974;28;20262;-78
2023/12/14 13:13:31;;;;;;;6.55;3.92;;;;;;;3.15;100.00;100792.72;5035695;28;20051;-78
2023/12/14 13:28:36;;;;;;;3.35;1.85;;;;;;;2.94;100.00;100916.47;5024733;28;20040;-78
2023/12/14 13:31:20;;;;;;;4.70;1.98;;;;;;;2.88;100.00;100916.94;5039238;28;20487;-78
2023/12/14 13:37:43;;;;;;;5.28;2.50;;;;;;;2.73;100.00;100860.81;5032537;28;20507;-78
2023/12/14 13:47:29;;;;;;;6.13;3.38;;;;;;;2.95;100.00;100989.38;5051807;28;20051;-78
2023/12/14 13:53:01;;;;;;;3.15;1.58;;;;;;;2.87;100.00;100909.13;5053474;28;20037;-77
2023/12/14 13:56:04;;;;;;;5.30;1.60;;;;;;;2.87;100.00;100920.50;5069366;28;20533;-76
2023/12/14 14:02:51;;;;;;;4.55;2.85;;;;;;;2.85;100.00;100943.50;5058084;28;20044;-78
2023/12/14 14:05:16;;;;;;;8.02;3.33;;;;;;;2.80;100.00;100950.88;5065259;28;20394;-78
2023/12/14 14:07:42;;;;;;;5.60;3.30;;;;;;;2.84;100.00;100973.47;5049200;28;20128;-78
2023/12/14 14:10:08;;;;;;;3.58;2.17;;;;;;;2.94;100.00;101015.84;5059066;28;20028;-77
2023/12/14 14:12:33;;;;;;;4.28;1.77;;;;;;;2.95;100.00;101022.84;5060436;28;20177;-76
2023/12/14 14:14:58;;;;;;;3.50;1.95;;;;;;;2.65;100.00;100931.72;5060015;28;20124;-77
2023/12/14 14:17:24;;;;;;;13.25;7.50;;;;;;;2.42;100.00;100964.94;5052128;28;20029;-78
2023/12/14 14:19:49;;;;;;;8.77;4.38;;;;;;;2.61;100.00;101026.94;5058055;28;20098;-77
2023/12/14 14:22:14;;;;;;;7.87;5.07;;;;;;;2.78;100.00;101084.63;5031899;28;20091;-78
2023/12/14 14:24:40;;;;;;;11.82;5.55;;;;;;;2.89;100.00;101121.66;5048138;28;20801;-76
2023/12/14 14:27:05;;;;;;;6.65;3.50;;;;;;;2.95;100.00;101141.53;5048718;28;20551;-77
2023/12/14 14:29:31;;;;;;;4.68;3.13;;;;;;;2.57;100.00;101138.78;5055513;28;20025;-77
2023/12/14 14:31:56;;;;;;;6.07;2.50;;;;;;;2.69;100.00;101188.06;5058308;28;20395;-78
2023/12/14 14:34:21;;;;;;;5.50;2.78;;;;;;;2.68;100.00;101207.47;5068284;28;20043;-77
2023/12/14 14:36:47;;;;;;;5.07;3.55;;;;;;;2.65;100.00;101215.59;5055886;28;20031;-78
2023/12/14 14:39:12;;;;;;;4.68;3.08;;;;;;;2.59;100.00;101231.81;5063064;28;20068;-78
2023/12/14 14:41:38;;;;;;;32.28;24.05;;;;;;;2.56;100.00;101237.28;5059762;28;20052;-76
2023/12/14 14:44:04;;;;;;;6.85;4.93;;;;;;;2.62;100.00;101257.97;5062591;28;20055;-77
2023/12/14 14:46:29;;;;;;;;;;;;;;;2.67;100.00;101287.50;5047731;28;20518;-77
2023/12/14 14:48:55;;;;;;;4.35;2.72;;;;;;;2.68;100.00;101305.03;5057250;28;19940;-78
2023/12/14 14:51:20;;;;;;;5.50;3.20;;;;;;;2.67;100.00;101314.75;5057106;28;20021;-77
2023/12/14 14:53:47;;;;;;;5.72;3.75;;;;;;;2.45;100.00;101275.69;5049910;28;20037;-77
2023/12/14 14:56:12;;;;;;;8.77;3.47;;;;;;;1.96;100.00;101239.25;5048575;28;20029;-78
2023/12/14 14:58:38;;;;;;;6.72;3.45;;;;;;;2.11;100.00;101317.34;5080941;28;20029;-78
2023/12/14 15:01:03;;;;;;;7.07;3.97;;;;;;;2.08;100.00;101343.88;5049042;28;20506;-79
2023/12/14 15:03:29;;;;;;;7.18;3.65;;;;;;;2.07;100.00;101359.75;5063845;28;20063;-78
2023/12/14 15:05:54;;;;;;;14.05;6.22;;;;;;;1.73;100.00;101367.03;5048938;28;20135;-77
2023/12/14 15:08:19;;;;;;;7.60;4.03;;;;;;;1.59;100.00;101372.25;5038003;28;20071;-78
2023/12/14 15:10:45;;;;;;;9.88;5.35;;;;;;;1.46;100.00;101386.13;5057598;28;20067;-78
2023/12/14 15:13:10;;;;;;;12.43;6.50;;;;;;;1.44;100.00;101416.09;5060958;28;20071;-76
2023/12/14 15:15:38;;;;;;;9.50;4.15;;;;;;;1.34;100.00;101434.19;5045993;28;20033;-77
2023/12/14 15:18:03;;;;;;;9.40;4.72;;;;;;;1.44;100.00;101458.19;5034520;28;20558;-78
2023/12/14 15:20:29;;;;;;;10.95;6.18;;;;;;;1.37;100.00;101446.31;5047118;28;20040;-77
2023/12/14 15:22:54;;;;;;;8.50;4.20;;;;;;;1.46;100.00;101472.13;5057895;28;20832;-76
2023/12/14 15:25:20;;;;;;;6.32;3.30;;;;;;;1.47;100.00;101448.38;5042662;28;20037;-77
2023/12/14 15:27:45;;;;;;;7.68;3.70;;;;;;;1.27;100.00;101446.84;5060333;28;20071;-78
2023/12/14 15:30:11;;;;;;;7.07;4.35;;;;;;;1.63;100.00;101485.16;5063496;28;20033;-76
2023/12/14 15:32:37;;;;;;;8.20;4.70;;;;;;;1.72;100.00;101482.97;5063566;28;20594;-77
2023/12/14 15:35:02;;;;;;;9.07;4.28;;;;;;;1.61;100.00;101455.44;5063294;28;20128;-78
2023/12/14 15:37:28;;;;;;;6.10;4.22;;;;;;;1.71;100.00;101474.22;5062934;28;20395;-76
2023/12/14 15:39:53;;;;;;;6.38;3.47;;;;;;;1.43;100.00;101446.00;5066096;28;20021;-78
2023/12/14 15:42:19;;;;;;;9.52;4.18;;;;;;;1.30;100.00;101453.72;5042143;28;20029;-76
2023/12/14 15:44:45;;;;;;;11.82;6.20;;;;;;;1.41;100.00;101479.44;5054410;23;20048;-76
2023/12/14 15:47:13;;;;;;;10.35;4.82;;;;;;;1.65;100.00;101507.00;5079915;28;20032;-75
2023/12/14 15:49:42;;;;;;;9.13;4.32;;;;;;;1.73;100.00;101489.91;5063868;28;20041;-76
2023/12/14 15:52:08;;;;;;;13.98;8.38;;;;;;;1.83;100.00;101480.56;5056228;28;20028;-75
2023/12/14 15:54:34;;;;;;;41.15;23.85;;;;;;;1.90;100.00;101481.91;5072454;28;20056;-76
2023/12/14 15:56:59;;;;;;;26.08;16.20;;;;;;;1.73;100.00;101453.06;5073056;28;20056;-76
2023/12/14 15:59:24;;;;;;;8.13;3.80;;;;;;;1.71;100.00;101449.66;5042607;28;20024;-75
2023/12/14 16:01:51;;;;;;;11.68;8.95;;;;;;;1.68;100.00;101464.69;5063427;28;20051;-75
2023/12/14 16:04:16;;;;;;;;;;;;;;;1.67;100.00;101470.91;5069097;28;20028;-75
2023/12/14 16:06:41;;;;;;;8.13;5.07;;;;;;;1.81;100.00;101493.81;5065997;28;19934;-75
2023/12/14 16:09:07;;;;;;;8.98;3.75;;;;;;;1.89;100.00;101501.28;5076260;28;20479;-76
2023/12/14 16:11:32;;;;;;;11.73;4.78;;;;;;;1.72;100.00;101465.38;5060545;28;20064;-76
2023/12/14 16:13:58;;;;;;;8.63;5.07;;;;;;;1.29;100.00;101416.94;5062670;28;20131;-76
2023/12/14 16:16:24;;;;;;;8.40;4.13;;;;;;;1.28;100.00;101468.72;5029026;28;20033;-76
2023/12/14 16:18:49;;;;;;;7.18;3.95;;;;;;;1.29;100.00;101483.59;5063284;28;20811;-75
2023/12/14 16:21:15;;;;;;;10.88;5.40;;;;;;;1.20;100.00;101482.31;5060529;28;20044;-75
2023/12/14 16:23:40;;;;;;;12.20;4.20;;;;;;;1.15;100.00;101494.88;5052752;28;20040;-76
2023/12/14 16:26:07;;;;;;;8.10;3.92;;;;;;;1.07;100.00;101489.16;5074319;28;20540;-75
2023/12/14 16:28:33;;;;;;;8.20;4.40;;;;;;;1.00;100.00;101496.53;5064103;28;20453;-75
2023/12/14 16:31:06;;;;;;;9.00;4.65;;;;;;;1.03;100.00;101500.78;5075246;28;20510;-75
2023/12/14 16:33:32;;;;;;;8.20;4.70;;;;;;;1.18;100.00;101520.16;5076140;28;20040;-75
2023/12/14 16:35:57;;;;;;;42.92;22.33;;;;;;;1.02;100.00;101504.34;5077059;28;20051;-75
2023/12/14 16:38:23;;;;;;;5.10;3.28;;;;;;;1.14;100.00;101514.19;5084088;28;20032;-75
2023/12/14 16:40:48;;;;;;;4.38;2.35;;;;;;;1.05;100.00;101491.91;5067386;28;20041;-76
2023/12/14 16:43:18;;;;;;;4.65;2.53;;;;;;;1.31;100.00;101515.06;5060695;28;20474;-75
2023/12/14 16:45:45;;;;;;;14.02;9.07;;;;;;;1.51;100.00;101520.06;5058222;28;20051;-75
2023/12/14 16:48:11;;;;;;;10.32;4.78;;;;;;;1.58;100.00;101503.00;5055765;28;20031;-75
2023/12/14 16:50:37;;;;;;;11.98;6.68;;;;;;;1.59;100.00;101499.47;5055363;28;20028;-75
2023/12/14 16:53:02;;;;;;;5.72;3.95;;;;;;;1.48;100.00;101472.88;5083652;28;20032;-76
2023/12/14 16:55:28;;;;;;;7.10;4.78;;;;;;;1.56;100.00;101475.91;5062136;28;20093;-75
2023/12/14 16:57:54;;;;;;;;;;;;;;;1.58;100.00;101476.69;5067381;28;20479;-75
2023/12/14 17:00:19;;;;;;;10.45;6.35;;;;;;;1.51;100.00;101464.81;5065862;28;19920;-75
2023/12/14 17:02:44;;;;;;;12.38;7.20;;;;;;;1.52;100.00;101471.75;5074623;28;20051;-75
2023/12/14 17:05:10;;;;;;;13.02;6.50;;;;;;;1.56;100.00;101480.34;5084737;28;20036;-76
2023/12/14 17:07:35;;;;;;;22.65;16.15;;;;;;;1.58;100.00;101492.47;5075458;28;20036;-76
2023/12/14 17:10:00;;;;;;;17.67;13.30;;;;;;;1.65;100.00;101503.53;5071142;28;20024;-75
2023/12/14 17:12:26;;;;;;;6.25;4.93;;;;;;;1.52;100.00;101499.88;5072435;28;20021;-75
2023/12/14 17:14:51;;;;;;;5.75;3.00;;;;;;;1.44;100.00;101500.31;5084289;28;20525;-75
2023/12/14 17:17:16;;;;;;;6.68;3.22;;;;;;;1.47;100.00;101519.41;5059022;28;20476;-76
2023/12/14 17:19:42;;;;;;;5.03;2.92;;;;;;;1.54;100.00;101527.78;5087819;28;20441;-76
2023/12/14 17:22:07;;;;;;;5.70;3.35;;;;;;;1.53;100.00;101530.53;5080254;28;20055;-75
2023/12/14 17:24:32;;;;;;;5.78;2.53;;;;;;;1.55;100.00;101545.31;5088268;28;20040;-75
2023/12/14 17:26:58;;;;;;;4.78;3.10;;;;;;;1.58;100.00;101560.91;5085620;28;20036;-75
2023/12/14 17:29:23;;;;;;;7.72;3.63;;;;;;;1.57;100.00;101564.50;5066997;28;20029;-75
2023/12/14 17:31:49;;;;;;;7.07;3.40;;;;;;;1.57;100.00;101572.38;5058951;28;20029;-75
2023/12/14 17:34:14;;;;;;;6.40;3.65;;;;;;;1.64;100.00;101575.53;5066814;28;20036;-75
2023/12/14 17:36:39;;;;;;;9.98;4.07;;;;;;;1.69;100.00;101584.88;5068348;28;20036;-75
2023/12/14 17:39:05;;;;;;;6.55;3.75;;;;;;;1.68;100.00;101590.22;5049444;28;20047;-75
2023/12/14 17:41:31;;;;;;;7.43;3.75;;;;;;;1.63;100.00;101590.47;5075009;28;20036;-75
2023/12/14 17:43:56;;;;;;;7.90;3.70;;;;;;;1.59;100.00;101593.34;5056914;28;20091;-75
2023/12/14 17:46:22;;;;;;;11.95;4.72;;;;;;;1.54;100.00;101596.22;5080795;28;20160;-76
2023/12/14 17:48:47;;;;;;;9.00;4.35;;;;;;;1.57;100.00;101603.97;5080150;28;20036;-76
2023/12/14 17:51:13;;;;;;;8.15;5.15;;;;;;;1.67;100.00;101631.50;5074515;28;20123;-75
2023/12/14 17:53:39;;;;;;;8.05;5.05;;;;;;;1.69;100.00;101639.31;5050195;28;20049;-75
2023/12/14 17:56:05;;;;;;;7.45;5.40;;;;;;;1.61;100.00;101631.81;5074515;28;20028;-75
2023/12/14 17:58:31;;;;;;;11.90;5.35;;;;;;;1.69;100.00;101641.94;5046065;28;20070;-75
2023/12/14 18:00:57;;;;;;;;;;;;;;;1.72;100.00;101640.94;5068945;28;20085;-75
2023/12/14 18:03:22;;;;;;;17.23;8.15;;;;;;;1.71;100.00;101641.84;5080325;28;19917;-75
2023/12/14 18:05:47;;;;;;;14.88;8.55;;;;;;;1.75;100.00;101654.75;5075345;28;20044;-75
2023/12/14 18:08:13;;;;;;;13.55;6.70;;;;;;;1.75;100.00;101656.53;5078847;28;20028;-75
2023/12/14 18:10:39;;;;;;;9.43;5.78;;;;;;;1.74;100.00;101660.13;5069723;28;20079;-75
2023/12/14 18:13:04;;;;;;;10.48;5.78;;;;;;;1.59;100.00;101641.59;5085516;28;20036;-75
2023/12/14 18:15:30;;;;;;;9.73;4.72;;;;;;;1.64;100.00;101644.81;5065309;28;20064;-75
2023/12/14 18:17:55;;;;;;;12.43;4.90;;;;;;;1.68;100.00;101656.03;5063733;28;20036;-75
2023/12/14 18:20:20;;;;;;;8.27;5.32;;;;;;;1.65;100.00;101656.19;5042763;28;20490;-75
2023/12/14 18:22:46;;;;;;;10.75;6.00;;;;;;;1.63;100.00;101658.06;5063322;28;20186;-75
2023/12/14 18:25:12;;;;;;;8.55;5.30;;;;;;;1.62;100.00;101654.59;5075156;28;20026;-75
2023/12/14 18:27:37;;;;;;;8.30;4.85;;;;;;;1.64;100.00;101665.88;5063643;28;20083;-76
2023/12/14 18:30:05;;;;;;;8.40;4.60;;;;;;;1.68;100.00;101677.94;5059998;28;20033;-75
2023/12/14 18:32:30;;;;;;;11.55;5.05;;;;;;;1.69;100.00;101684.91;5069339;28;20419;-75
2023/12/14 18:34:56;;;;;;;10.68;4.32;;;;;;;1.59;100.00;101681.09;5053450;28;20033;-75
2023/12/14 18:37:21;;;;;;;10.00;4.60;;;;;;;1.41;100.00;101666.25;5074666;28;20498;-75
2023/12/14 18:39:47;;;;;;;10.27;5.15;;;;;;;1.50;100.00;101684.19;5054295;28;20024;-75
2023/12/14 18:42:12;;;;;;;11.40;5.05;;;;;;;1.48;100.00;101686.06;5072462;28;20143;-75
2023/12/14 18:44:38;;;;;;;11.32;4.50;;;;;;;1.46;100.00;101682.66;5077009;28;20119;-75
2023/12/14 18:47:04;;;;;;;8.20;4.90;;;;;;;1.38;100.00;101676.94;5075866;28;20036;-75
2023/12/14 18:49:30;;;;;;;9.77;5.00;;;;;;;1.32;100.00;101669.38;5084972;28;20081;-75
2023/12/14 18:51:55;;;;;;;13.65;7.45;;;;;;;1.35;100.00;101680.56;5045429;28;20044;-75
2023/12/14 18:54:21;;;;;;;9.05;5.78;;;;;;;1.30;100.00;101684.38;5068943;28;20030;-76
2023/12/14 18:56:46;;;;;;;7.15;4.63;;;;;;;1.27;100.00;101673.09;5071528;28;20481;-75
2023/12/14 18:59:12;;;;;;;9.77;4.90;;;;;;;1.27;100.00;101675.72;5045420;28;20115;-75
2023/12/14 19:01:37;;;;;;;9.05;5.28;;;;;;;1.33;100.00;101690.31;5080198;28;20040;-75
2023/12/14 19:04:03;;;;;;;9.32;5.70;;;;;;;1.27;100.00;101688.03;5081431;28;20040;-75
2023/12/14 19:06:29;;;;;;;13.05;6.00;;;;;;;1.25;100.00;101682.00;5080179;28;20024;-75
2023/12/14 19:08:56;;;;;;;8.30;5.07;;;;;;;1.27;100.00;101701.19;5084563;28;20115;-75
2023/12/14 19:11:21;;;;;;;15.38;6.88;;;;;;;1.34;100.00;101710.47;5084356;28;20506;-75
2023/12/14 19:13:47;;;;;;;12.18;7.57;;;;;;;1.36;100.00;101713.88;5062212;28;20072;-75
2023/12/14 19:16:21;;;;;;;11.98;7.47;;;;;;;1.29;100.00;101707.22;5077813;28;20036;-75
2023/12/14 19:18:46;;;;;;;16.00;8.40;;;;;;;1.26;100.00;101705.59;5075903;28;20028;-75
2023/12/14 19:21:17;;;;;;;15.32;7.72;;;;;;;1.25;100.00;101710.94;5080459;28;20037;-75
2023/12/14 19:23:43;;;;;;;16.52;7.65;;;;;;;1.20;100.00;101700.63;5047137;28;20051;-75
2023/12/14 19:26:15;;;;;;;13.43;7.70;;;;;;;1.20;100.00;101700.63;5072524;28;20028;-75
2023/12/14 19:28:41;;;;;;;15.73;7.63;;;;;;;1.19;100.00;101701.56;5076303;28;20033;-74
2023/12/14 19:31:07;;;;;;;21.20;9.57;;;;;;;1.11;100.00;101692.38;5058823;28;20090;-74
2023/12/14 19:33:32;;;;;;;;;;;;;;;0.95;100.00;101687.03;5064305;28;20040;-74
2023/12/14 19:35:58;;;;;;;16.20;8.63;;;;;;;1.02;100.00;101706.84;5064894;28;20026;-74
2023/12/14 19:38:23;;;;;;;15.75;8.35;;;;;;;1.03;100.00;101716.41;5065175;28;20025;-75
2023/12/14 19:40:48;;;;;;;22.38;10.25;;;;;;;1.03;100.00;101714.66;5055708;28;20052;-74
2023/12/14 19:43:14;;;;;;;22.15;10.70;;;;;;;1.05;100.00;101725.09;5051635;28;20446;-74
2023/12/14 19:45:40;;;;;;;22.92;9.93;;;;;;;1.14;100.00;101740.41;5083772;28;20036;-75
2023/12/14 19:48:06;;;;;;;21.17;10.70;;;;;;;1.22;100.00;101748.78;5082391;28;20035;-75
2023/12/14 19:50:31;;;;;;;18.40;9.68;;;;;;;1.32;100.00;101761.47;5062372;28;20044;-75
2023/12/14 19:52:56;;;;;;;21.65;10.48;;;;;;;1.34;100.00;101762.25;5072825;28;20036;-74
2023/12/14 19:55:22;;;;;;;19.33;9.15;;;;;;;1.39;100.00;101768.13;5074548;28;20068;-74
2023/12/14 19:57:49;;;;;;;15.77;8.23;;;;;;;1.35;100.00;101770.03;5071986;28;20486;-73
2023/12/14 20:00:15;;;;;;;18.15;7.93;;;;;;;1.31;100.00;101757.13;5076190;28;20068;-75
2023/12/14 20:02:40;;;;;;;17.88;9.40;;;;;;;1.30;100.00;101761.53;5055257;28;20126;-74
2023/12/14 20:05:06;;;;;;;20.23;9.88;;;;;;;1.33;100.00;101765.78;5066100;28;20028;-74
2023/12/14 20:07:32;;;;;;;25.23;11.18;;;;;;;1.32;100.00;101767.56;5049188;28;20033;-74
2023/12/14 20:09:57;;;;;;;24.80;10.75;;;;;;;1.35;100.00;101772.66;5061419;28;20020;-75
2023/12/14 20:12:23;;;;;;;18.55;8.90;;;;;;;1.37;100.00;101767.34;5063382;28;20122;-74
2023/12/14 20:14:49;;;;;;;;;;;;;;;1.37;100.00;101769.97;5066512;28;20032;-77
2023/12/14 20:17:14;;;;;;;17.88;8.88;;;;;;;1.33;100.00;101765.78;5058312;28;19969;-74
2023/12/14 20:19:40;;;;;;;22.88;10.18;;;;;;;1.27;100.00;101762.53;5075495;28;20410;-73
2023/12/14 20:22:05;;;;;;;24.60;10.57;;;;;;;1.22;100.00;101754.03;5057902;28;20032;-74
2023/12/14 20:24:31;;;;;;;18.83;10.00;;;;;;;1.11;100.00;101735.31;5069344;28;20046;-75
2023/12/14 20:26:58;;;;;;;19.20;10.50;;;;;;;0.99;100.00;101728.88;5066360;28;20039;-73
2023/12/14 20:29:24;;;;;;;19.48;10.82;;;;;;;0.97;100.00;101733.38;5058793;28;20024;-76
2023/12/14 20:31:49;;;;;;;22.25;10.68;;;;;;;0.84;100.00;101713.84;5076130;28;20042;-75